OFK weather

Karl Stefan Memorial Airport
Norfolk, Nebraska, United States

Public forecast

Using degrees Fahrenheit for public forecast. Weather courtesy of forecast.io.

Current aviation weather report (METAR) for Karl Stefan Memorial Airport

Retrieved 2019/12/15 15:09 UTC (17 minutes ago):

KOFK 151509Z AUTO 13006KT 1/2SM SN FZFG VV013 M10/M12 A3002

Aviation forecast (TAF) for Karl Stefan Memorial Airport

Retrieved 2019/12/15 12:33 UTC (3 hours ago):

TAF KOFK 151131Z 1512/1612 VRB06KT 1SM -SN BKN020 OVC050 FM151800 VRB04KT 4SM -SN BKN025 OVC050 FM152100 VRB04KT P6SM BKN035 FM160000 VRB03KT P6SM BKN050